sensor_id;sensor_type;location;lat;lon;timestamp;P1;durP1;ratioP1;P2;durP2;ratioP2
21354;SDS011;10835;50.148;19.760;2023-04-07T00:02:24;17.70;;;8.00;;
21354;SDS011;10835;50.148;19.760;2023-04-07T00:04:54;13.45;;;6.47;;
21354;SDS011;10835;50.148;19.760;2023-04-07T00:07:23;10.85;;;5.85;;
21354;SDS011;10835;50.148;19.760;2023-04-07T00:09:51;17.77;;;7.30;;
21354;SDS011;10835;50.148;19.760;2023-04-07T00:12:19;13.10;;;6.82;;
21354;SDS011;10835;50.148;19.760;2023-04-07T00:14:49;18.63;;;8.07;;
21354;SDS011;10835;50.148;19.760;2023-04-07T00:17:17;15.40;;;7.85;;
21354;SDS011;10835;50.148;19.760;2023-04-07T00:19:45;12.43;;;7.05;;
21354;SDS011;10835;50.148;19.760;2023-04-07T00:22:14;16.58;;;7.75;;
21354;SDS011;10835;50.148;19.760;2023-04-07T00:24:46;15.23;;;6.45;;
21354;SDS011;10835;50.148;19.760;2023-04-07T00:27:14;13.63;;;6.35;;
21354;SDS011;10835;50.148;19.760;2023-04-07T00:29:42;15.50;;;7.13;;
21354;SDS011;10835;50.148;19.760;2023-04-07T00:32:13;15.30;;;6.10;;
21354;SDS011;10835;50.148;19.760;2023-04-07T00:34:41;13.20;;;6.20;;
21354;SDS011;10835;50.148;19.760;2023-04-07T00:37:09;10.52;;;5.65;;
21354;SDS011;10835;50.148;19.760;2023-04-07T00:39:37;14.15;;;5.88;;
21354;SDS011;10835;50.148;19.760;2023-04-07T00:42:06;15.90;;;7.18;;
21354;SDS011;10835;50.148;19.760;2023-04-07T00:44:34;11.13;;;5.60;;
21354;SDS011;10835;50.148;19.760;2023-04-07T00:47:02;8.07;;;4.90;;
21354;SDS011;10835;50.148;19.760;2023-04-07T00:49:32;9.07;;;4.68;;
21354;SDS011;10835;50.148;19.760;2023-04-07T00:52:00;8.85;;;4.60;;
21354;SDS011;10835;50.148;19.760;2023-04-07T00:54:29;11.18;;;5.22;;
21354;SDS011;10835;50.148;19.760;2023-04-07T00:56:57;9.63;;;4.97;;
21354;SDS011;10835;50.148;19.760;2023-04-07T00:59:27;9.10;;;4.80;;
21354;SDS011;10835;50.148;19.760;2023-04-07T01:01:57;12.77;;;6.03;;
21354;SDS011;10835;50.148;19.760;2023-04-07T01:04:32;8.80;;;4.03;;
21354;SDS011;10835;50.148;19.760;2023-04-07T01:07:10;9.20;;;4.65;;
21354;SDS011;10835;50.148;19.760;2023-04-07T01:09:53;8.93;;;4.20;;
21354;SDS011;10835;50.148;19.760;2023-04-07T01:12:33;8.93;;;4.68;;
21354;SDS011;10835;50.148;19.760;2023-04-07T01:15:09;9.63;;;4.03;;
21354;SDS011;10835;50.148;19.760;2023-04-07T01:17:42;7.30;;;3.63;;
21354;SDS011;10835;50.148;19.760;2023-04-07T01:20:16;8.82;;;4.28;;
21354;SDS011;10835;50.148;19.760;2023-04-07T01:22:56;8.35;;;4.57;;
21354;SDS011;10835;50.148;19.760;2023-04-07T01:25:33;6.68;;;3.95;;
21354;SDS011;10835;50.148;19.760;2023-04-07T01:28:15;5.82;;;3.55;;
21354;SDS011;10835;50.148;19.760;2023-04-07T01:31:09;9.82;;;4.78;;
21354;SDS011;10835;50.148;19.760;2023-04-07T01:33:41;6.80;;;4.07;;
21354;SDS011;10835;50.148;19.760;2023-04-07T01:36:11;10.38;;;4.15;;
21354;SDS011;10835;50.148;19.760;2023-04-07T01:38:41;7.35;;;3.75;;
21354;SDS011;10835;50.148;19.760;2023-04-07T01:41:11;7.75;;;3.90;;
21354;SDS011;10835;50.148;19.760;2023-04-07T01:43:42;7.75;;;3.90;;
21354;SDS011;10835;50.148;19.760;2023-04-07T01:46:13;8.18;;;4.90;;
21354;SDS011;10835;50.148;19.760;2023-04-07T01:48:41;6.25;;;3.97;;
21354;SDS011;10835;50.148;19.760;2023-04-07T01:51:10;8.32;;;4.07;;
21354;SDS011;10835;50.148;19.760;2023-04-07T01:53:44;6.10;;;3.72;;
21354;SDS011;10835;50.148;19.760;2023-04-07T01:56:13;8.50;;;3.88;;
21354;SDS011;10835;50.148;19.760;2023-04-07T01:58:45;6.38;;;3.92;;
21354;SDS011;10835;50.148;19.760;2023-04-07T02:01:17;7.40;;;4.07;;
21354;SDS011;10835;50.148;19.760;2023-04-07T02:03:48;8.20;;;4.82;;
21354;SDS011;10835;50.148;19.760;2023-04-07T02:06:21;6.63;;;3.97;;
21354;SDS011;10835;50.148;19.760;2023-04-07T02:08:56;9.27;;;4.28;;
21354;SDS011;10835;50.148;19.760;2023-04-07T02:11:29;8.30;;;4.30;;
21354;SDS011;10835;50.148;19.760;2023-04-07T02:14:03;9.55;;;4.60;;
21354;SDS011;10835;50.148;19.760;2023-04-07T02:16:45;10.98;;;6.18;;
21354;SDS011;10835;50.148;19.760;2023-04-07T02:19:14;6.65;;;3.83;;
21354;SDS011;10835;50.148;19.760;2023-04-07T02:21:43;7.57;;;3.67;;
21354;SDS011;10835;50.148;19.760;2023-04-07T02:24:17;7.85;;;3.95;;
21354;SDS011;10835;50.148;19.760;2023-04-07T02:26:47;8.80;;;4.45;;
21354;SDS011;10835;50.148;19.760;2023-04-07T02:29:16;8.55;;;4.75;;
21354;SDS011;10835;50.148;19.760;2023-04-07T02:31:46;7.38;;;4.07;;
21354;SDS011;10835;50.148;19.760;2023-04-07T02:34:14;7.07;;;3.67;;
21354;SDS011;10835;50.148;19.760;2023-04-07T02:36:42;7.97;;;3.97;;
21354;SDS011;10835;50.148;19.760;2023-04-07T02:39:11;7.72;;;3.65;;
21354;SDS011;10835;50.148;19.760;2023-04-07T02:41:40;7.30;;;4.07;;
21354;SDS011;10835;50.148;19.760;2023-04-07T02:44:08;8.52;;;4.10;;
21354;SDS011;10835;50.148;19.760;2023-04-07T02:46:36;8.93;;;4.07;;
21354;SDS011;10835;50.148;19.760;2023-04-07T02:49:06;8.82;;;4.78;;
21354;SDS011;10835;50.148;19.760;2023-04-07T02:51:36;9.23;;;4.95;;
21354;SDS011;10835;50.148;19.760;2023-04-07T02:54:04;10.40;;;4.32;;
21354;SDS011;10835;50.148;19.760;2023-04-07T02:56:32;6.93;;;3.92;;
21354;SDS011;10835;50.148;19.760;2023-04-07T02:59:01;6.55;;;3.60;;
21354;SDS011;10835;50.148;19.760;2023-04-07T03:01:33;8.38;;;3.72;;
21354;SDS011;10835;50.148;19.760;2023-04-07T03:04:02;5.93;;;3.13;;
21354;SDS011;10835;50.148;19.760;2023-04-07T03:06:32;4.93;;;2.95;;
21354;SDS011;10835;50.148;19.760;2023-04-07T03:09:08;6.53;;;3.38;;
21354;SDS011;10835;50.148;19.760;2023-04-07T03:11:38;5.72;;;3.03;;
21354;SDS011;10835;50.148;19.760;2023-04-07T03:14:07;9.40;;;4.07;;
21354;SDS011;10835;50.148;19.760;2023-04-07T03:16:43;6.10;;;4.13;;
21354;SDS011;10835;50.148;19.760;2023-04-07T03:19:12;6.60;;;3.42;;
21354;SDS011;10835;50.148;19.760;2023-04-07T03:21:46;6.82;;;2.95;;
21354;SDS011;10835;50.148;19.760;2023-04-07T03:24:14;6.13;;;3.35;;
21354;SDS011;10835;50.148;19.760;2023-04-07T03:26:44;6.82;;;3.50;;
21354;SDS011;10835;50.148;19.760;2023-04-07T03:29:20;8.82;;;3.75;;
21354;SDS011;10835;50.148;19.760;2023-04-07T03:31:50;9.45;;;3.97;;
21354;SDS011;10835;50.148;19.760;2023-04-07T03:34:22;5.47;;;3.67;;
21354;SDS011;10835;50.148;19.760;2023-04-07T03:36:52;7.80;;;3.70;;
21354;SDS011;10835;50.148;19.760;2023-04-07T03:39:20;7.20;;;3.83;;
21354;SDS011;10835;50.148;19.760;2023-04-07T03:41:53;8.13;;;3.70;;
21354;SDS011;10835;50.148;19.760;2023-04-07T03:44:22;5.10;;;3.40;;
21354;SDS011;10835;50.148;19.760;2023-04-07T03:46:50;6.45;;;3.50;;
21354;SDS011;10835;50.148;19.760;2023-04-07T03:49:21;7.18;;;3.45;;
21354;SDS011;10835;50.148;19.760;2023-04-07T03:51:52;6.30;;;3.78;;
21354;SDS011;10835;50.148;19.760;2023-04-07T03:54:20;6.57;;;3.45;;
21354;SDS011;10835;50.148;19.760;2023-04-07T03:56:48;8.48;;;3.47;;
21354;SDS011;10835;50.148;19.760;2023-04-07T03:59:21;5.35;;;2.72;;
21354;SDS011;10835;50.148;19.760;2023-04-07T04:01:55;4.65;;;2.95;;
21354;SDS011;10835;50.148;19.760;2023-04-07T04:04:25;8.82;;;3.67;;
21354;SDS011;10835;50.148;19.760;2023-04-07T04:06:55;7.10;;;3.25;;
21354;SDS011;10835;50.148;19.760;2023-04-07T04:09:43;7.30;;;4.03;;
21354;SDS011;10835;50.148;19.760;2023-04-07T04:12:11;3.95;;;2.95;;
21354;SDS011;10835;50.148;19.760;2023-04-07T04:14:48;7.95;;;3.88;;
21354;SDS011;10835;50.148;19.760;2023-04-07T04:17:17;6.18;;;3.80;;
21354;SDS011;10835;50.148;19.760;2023-04-07T04:19:46;8.13;;;3.53;;
21354;SDS011;10835;50.148;19.760;2023-04-07T04:22:38;8.82;;;3.80;;
21354;SDS011;10835;50.148;19.760;2023-04-07T04:25:07;6.75;;;3.30;;
21354;SDS011;10835;50.148;19.760;2023-04-07T04:27:36;7.10;;;3.92;;
21354;SDS011;10835;50.148;19.760;2023-04-07T04:30:11;5.75;;;2.85;;
21354;SDS011;10835;50.148;19.760;2023-04-07T04:32:47;7.45;;;3.17;;
21354;SDS011;10835;50.148;19.760;2023-04-07T04:35:20;12.38;;;5.05;;
21354;SDS011;10835;50.148;19.760;2023-04-07T04:38:03;12.43;;;3.90;;
21354;SDS011;10835;50.148;19.760;2023-04-07T04:40:33;11.70;;;4.28;;
21354;SDS011;10835;50.148;19.760;2023-04-07T04:43:03;10.05;;;3.58;;
21354;SDS011;10835;50.148;19.760;2023-04-07T04:45:35;8.70;;;3.85;;
21354;SDS011;10835;50.148;19.760;2023-04-07T04:48:05;5.78;;;2.97;;
21354;SDS011;10835;50.148;19.760;2023-04-07T04:50:33;10.88;;;4.43;;
21354;SDS011;10835;50.148;19.760;2023-04-07T04:53:08;11.60;;;4.97;;
21354;SDS011;10835;50.148;19.760;2023-04-07T04:55:44;24.20;;;8.13;;
21354;SDS011;10835;50.148;19.760;2023-04-07T04:58:20;3.40;;;3.10;;
21354;SDS011;10835;50.148;19.760;2023-04-07T05:00:53;17.05;;;5.93;;
21354;SDS011;10835;50.148;19.760;2023-04-07T05:03:28;10.77;;;4.25;;
21354;SDS011;10835;50.148;19.760;2023-04-07T05:06:01;6.30;;;3.05;;
21354;SDS011;10835;50.148;19.760;2023-04-07T05:08:32;9.73;;;3.55;;
21354;SDS011;10835;50.148;19.760;2023-04-07T05:11:00;5.63;;;3.13;;
21354;SDS011;10835;50.148;19.760;2023-04-07T05:13:32;9.18;;;4.18;;
21354;SDS011;10835;50.148;19.760;2023-04-07T05:16:02;8.75;;;4.75;;
21354;SDS011;10835;50.148;19.760;2023-04-07T05:18:32;8.60;;;3.88;;
21354;SDS011;10835;50.148;19.760;2023-04-07T05:21:02;7.97;;;4.03;;
21354;SDS011;10835;50.148;19.760;2023-04-07T05:23:35;6.75;;;3.63;;
21354;SDS011;10835;50.148;19.760;2023-04-07T05:26:05;4.93;;;2.90;;
21354;SDS011;10835;50.148;19.760;2023-04-07T05:28:34;6.43;;;2.83;;
21354;SDS011;10835;50.148;19.760;2023-04-07T05:31:07;7.88;;;3.80;;
21354;SDS011;10835;50.148;19.760;2023-04-07T05:33:35;6.13;;;3.33;;
21354;SDS011;10835;50.148;19.760;2023-04-07T05:36:04;5.25;;;2.83;;
21354;SDS011;10835;50.148;19.760;2023-04-07T05:38:35;6.70;;;3.45;;
21354;SDS011;10835;50.148;19.760;2023-04-07T05:41:10;4.38;;;2.83;;
21354;SDS011;10835;50.148;19.760;2023-04-07T05:43:38;7.05;;;3.28;;
21354;SDS011;10835;50.148;19.760;2023-04-07T05:46:07;4.53;;;2.88;;
21354;SDS011;10835;50.148;19.760;2023-04-07T05:48:45;7.03;;;3.17;;
21354;SDS011;10835;50.148;19.760;2023-04-07T05:51:14;6.18;;;2.95;;
21354;SDS011;10835;50.148;19.760;2023-04-07T05:53:45;6.43;;;3.25;;
21354;SDS011;10835;50.148;19.760;2023-04-07T05:56:15;4.63;;;2.67;;
21354;SDS011;10835;50.148;19.760;2023-04-07T05:58:45;6.07;;;2.75;;
21354;SDS011;10835;50.148;19.760;2023-04-07T06:01:15;4.60;;;2.90;;
21354;SDS011;10835;50.148;19.760;2023-04-07T06:03:43;8.45;;;3.05;;
21354;SDS011;10835;50.148;19.760;2023-04-07T06:06:18;29.77;;;8.80;;
21354;SDS011;10835;50.148;19.760;2023-04-07T06:08:48;19.67;;;8.60;;
21354;SDS011;10835;50.148;19.760;2023-04-07T06:11:16;12.30;;;6.07;;
21354;SDS011;10835;50.148;19.760;2023-04-07T06:13:46;10.20;;;5.05;;
21354;SDS011;10835;50.148;19.760;2023-04-07T06:16:15;6.90;;;3.63;;
21354;SDS011;10835;50.148;19.760;2023-04-07T06:18:45;7.53;;;3.67;;
21354;SDS011;10835;50.148;19.760;2023-04-07T06:21:13;6.88;;;3.25;;
21354;SDS011;10835;50.148;19.760;2023-04-07T06:23:42;6.30;;;2.75;;
21354;SDS011;10835;50.148;19.760;2023-04-07T06:26:14;4.85;;;3.42;;
21354;SDS011;10835;50.148;19.760;2023-04-07T06:28:43;4.53;;;2.50;;
21354;SDS011;10835;50.148;19.760;2023-04-07T06:31:12;6.75;;;2.95;;
21354;SDS011;10835;50.148;19.760;2023-04-07T06:33:42;7.10;;;3.38;;
21354;SDS011;10835;50.148;19.760;2023-04-07T06:36:11;9.73;;;3.28;;
21354;SDS011;10835;50.148;19.760;2023-04-07T06:38:40;5.15;;;2.95;;
21354;SDS011;10835;50.148;19.760;2023-04-07T06:41:08;6.20;;;2.97;;
21354;SDS011;10835;50.148;19.760;2023-04-07T06:43:45;8.82;;;3.72;;
21354;SDS011;10835;50.148;19.760;2023-04-07T06:46:14;9.38;;;3.92;;
21354;SDS011;10835;50.148;19.760;2023-04-07T06:48:43;5.07;;;3.13;;
21354;SDS011;10835;50.148;19.760;2023-04-07T06:51:11;10.63;;;4.15;;
21354;SDS011;10835;50.148;19.760;2023-04-07T06:53:39;9.90;;;4.65;;
21354;SDS011;10835;50.148;19.760;2023-04-07T06:56:10;7.10;;;3.95;;
21354;SDS011;10835;50.148;19.760;2023-04-07T06:58:39;6.65;;;3.85;;
21354;SDS011;10835;50.148;19.760;2023-04-07T07:01:08;8.27;;;4.32;;
21354;SDS011;10835;50.148;19.760;2023-04-07T07:03:37;7.70;;;3.58;;
21354;SDS011;10835;50.148;19.760;2023-04-07T07:06:07;6.65;;;3.53;;
21354;SDS011;10835;50.148;19.760;2023-04-07T07:08:36;5.10;;;3.08;;
21354;SDS011;10835;50.148;19.760;2023-04-07T07:11:04;7.20;;;3.83;;
21354;SDS011;10835;50.148;19.760;2023-04-07T07:13:33;7.68;;;3.83;;
21354;SDS011;10835;50.148;19.760;2023-04-07T07:16:01;10.73;;;4.20;;
21354;SDS011;10835;50.148;19.760;2023-04-07T07:18:31;6.78;;;3.75;;
21354;SDS011;10835;50.148;19.760;2023-04-07T07:20:59;8.77;;;4.03;;
21354;SDS011;10835;50.148;19.760;2023-04-07T07:23:28;8.73;;;3.97;;
21354;SDS011;10835;50.148;19.760;2023-04-07T07:25:56;8.07;;;3.53;;
21354;SDS011;10835;50.148;19.760;2023-04-07T07:28:24;11.40;;;5.57;;
21354;SDS011;10835;50.148;19.760;2023-04-07T07:30:54;15.82;;;6.75;;
21354;SDS011;10835;50.148;19.760;2023-04-07T07:33:22;7.53;;;4.30;;
21354;SDS011;10835;50.148;19.760;2023-04-07T07:35:52;13.30;;;3.88;;
21354;SDS011;10835;50.148;19.760;2023-04-07T07:38:20;7.75;;;3.35;;
21354;SDS011;10835;50.148;19.760;2023-04-07T07:40:48;11.30;;;3.90;;
21354;SDS011;10835;50.148;19.760;2023-04-07T07:43:16;10.48;;;3.90;;
21354;SDS011;10835;50.148;19.760;2023-04-07T07:45:45;5.78;;;2.92;;
21354;SDS011;10835;50.148;19.760;2023-04-07T07:48:13;12.93;;;4.60;;
21354;SDS011;10835;50.148;19.760;2023-04-07T07:50:41;10.07;;;4.10;;
21354;SDS011;10835;50.148;19.760;2023-04-07T07:53:11;10.93;;;5.20;;
21354;SDS011;10835;50.148;19.760;2023-04-07T07:55:39;4.93;;;3.70;;
21354;SDS011;10835;50.148;19.760;2023-04-07T07:58:07;6.07;;;3.20;;
21354;SDS011;10835;50.148;19.760;2023-04-07T08:00:36;8.90;;;4.65;;
21354;SDS011;10835;50.148;19.760;2023-04-07T08:03:04;14.90;;;6.28;;
21354;SDS011;10835;50.148;19.760;2023-04-07T08:05:32;11.00;;;5.38;;
21354;SDS011;10835;50.148;19.760;2023-04-07T08:08:00;11.32;;;6.18;;
21354;SDS011;10835;50.148;19.760;2023-04-07T08:10:32;8.45;;;4.15;;
21354;SDS011;10835;50.148;19.760;2023-04-07T08:13:01;12.13;;;4.85;;
21354;SDS011;10835;50.148;19.760;2023-04-07T08:15:30;10.43;;;5.88;;
21354;SDS011;10835;50.148;19.760;2023-04-07T08:17:59;15.30;;;7.97;;
21354;SDS011;10835;50.148;19.760;2023-04-07T08:20:30;11.27;;;5.25;;
21354;SDS011;10835;50.148;19.760;2023-04-07T08:22:58;11.23;;;4.32;;
21354;SDS011;10835;50.148;19.760;2023-04-07T08:25:28;11.15;;;4.93;;
21354;SDS011;10835;50.148;19.760;2023-04-07T08:27:57;11.35;;;5.47;;
21354;SDS011;10835;50.148;19.760;2023-04-07T08:30:26;13.18;;;5.35;;
21354;SDS011;10835;50.148;19.760;2023-04-07T08:32:54;10.60;;;5.25;;
21354;SDS011;10835;50.148;19.760;2023-04-07T08:35:23;15.35;;;5.40;;
21354;SDS011;10835;50.148;19.760;2023-04-07T08:37:53;11.35;;;4.47;;
21354;SDS011;10835;50.148;19.760;2023-04-07T08:40:21;8.40;;;4.32;;
21354;SDS011;10835;50.148;19.760;2023-04-07T08:42:49;11.98;;;5.45;;
21354;SDS011;10835;50.148;19.760;2023-04-07T08:45:20;11.50;;;5.43;;
21354;SDS011;10835;50.148;19.760;2023-04-07T08:47:49;13.90;;;6.07;;
21354;SDS011;10835;50.148;19.760;2023-04-07T08:50:22;11.23;;;5.03;;
21354;SDS011;10835;50.148;19.760;2023-04-07T08:52:54;10.73;;;5.07;;
21354;SDS011;10835;50.148;19.760;2023-04-07T08:55:23;13.02;;;5.40;;
21354;SDS011;10835;50.148;19.760;2023-04-07T08:57:52;13.30;;;5.80;;
21354;SDS011;10835;50.148;19.760;2023-04-07T09:00:23;14.57;;;5.25;;
21354;SDS011;10835;50.148;19.760;2023-04-07T09:02:54;12.68;;;5.75;;
21354;SDS011;10835;50.148;19.760;2023-04-07T09:05:23;14.38;;;6.10;;
21354;SDS011;10835;50.148;19.760;2023-04-07T09:07:55;19.45;;;6.32;;
21354;SDS011;10835;50.148;19.760;2023-04-07T09:10:25;12.73;;;5.68;;
21354;SDS011;10835;50.148;19.760;2023-04-07T09:12:53;12.95;;;6.00;;
21354;SDS011;10835;50.148;19.760;2023-04-07T09:15:23;20.92;;;7.47;;
21354;SDS011;10835;50.148;19.760;2023-04-07T09:17:52;15.85;;;6.10;;
21354;SDS011;10835;50.148;19.760;2023-04-07T09:20:23;16.45;;;6.38;;
21354;SDS011;10835;50.148;19.760;2023-04-07T09:22:51;16.27;;;6.90;;
21354;SDS011;10835;50.148;19.760;2023-04-07T09:25:21;14.70;;;5.95;;
21354;SDS011;10835;50.148;19.760;2023-04-07T09:27:53;10.00;;;5.45;;
21354;SDS011;10835;50.148;19.760;2023-04-07T09:30:25;16.58;;;6.55;;
21354;SDS011;10835;50.148;19.760;2023-04-07T09:32:54;12.82;;;5.15;;
21354;SDS011;10835;50.148;19.760;2023-04-07T09:35:22;14.20;;;6.30;;
21354;SDS011;10835;50.148;19.760;2023-04-07T09:38:03;14.63;;;6.68;;
21354;SDS011;10835;50.148;19.760;2023-04-07T09:40:33;15.90;;;7.43;;
21354;SDS011;10835;50.148;19.760;2023-04-07T09:43:02;14.18;;;5.20;;
21354;SDS011;10835;50.148;19.760;2023-04-07T09:45:33;11.48;;;5.45;;
21354;SDS011;10835;50.148;19.760;2023-04-07T09:48:05;13.70;;;5.93;;
21354;SDS011;10835;50.148;19.760;2023-04-07T09:50:35;13.95;;;6.03;;
21354;SDS011;10835;50.148;19.760;2023-04-07T09:53:05;15.48;;;6.38;;
21354;SDS011;10835;50.148;19.760;2023-04-07T09:55:33;10.48;;;5.80;;
21354;SDS011;10835;50.148;19.760;2023-04-07T09:58:03;9.63;;;4.70;;
21354;SDS011;10835;50.148;19.760;2023-04-07T10:00:34;12.90;;;5.57;;
21354;SDS011;10835;50.148;19.760;2023-04-07T10:03:02;10.50;;;5.85;;
21354;SDS011;10835;50.148;19.760;2023-04-07T10:05:32;13.07;;;5.30;;
21354;SDS011;10835;50.148;19.760;2023-04-07T10:08:02;9.02;;;5.28;;
21354;SDS011;10835;50.148;19.760;2023-04-07T10:10:33;10.25;;;4.50;;
21354;SDS011;10835;50.148;19.760;2023-04-07T10:13:02;13.77;;;4.40;;
21354;SDS011;10835;50.148;19.760;2023-04-07T10:15:40;10.65;;;4.72;;
21354;SDS011;10835;50.148;19.760;2023-04-07T10:18:08;11.05;;;4.88;;
21354;SDS011;10835;50.148;19.760;2023-04-07T10:20:37;9.18;;;4.90;;
21354;SDS011;10835;50.148;19.760;2023-04-07T10:23:12;10.50;;;5.22;;
21354;SDS011;10835;50.148;19.760;2023-04-07T10:25:45;10.73;;;4.72;;
21354;SDS011;10835;50.148;19.760;2023-04-07T10:28:16;7.80;;;4.35;;
21354;SDS011;10835;50.148;19.760;2023-04-07T10:30:47;11.60;;;4.25;;
21354;SDS011;10835;50.148;19.760;2023-04-07T10:33:16;13.75;;;6.72;;
21354;SDS011;10835;50.148;19.760;2023-04-07T10:38:32;15.10;;;6.63;;
21354;SDS011;10835;50.148;19.760;2023-04-07T10:41:07;7.53;;;4.35;;
21354;SDS011;10835;50.148;19.760;2023-04-07T10:43:58;10.50;;;5.40;;
21354;SDS011;10835;50.148;19.760;2023-04-07T10:49:31;13.00;;;5.55;;
21354;SDS011;10835;50.148;19.760;2023-04-07T10:54:55;16.52;;;6.10;;
21354;SDS011;10835;50.148;19.760;2023-04-07T10:58:16;13.60;;;5.57;;
21354;SDS011;10835;50.148;19.760;2023-04-07T11:03:53;2.28;;;1.95;;
21354;SDS011;10835;50.148;19.760;2023-04-07T11:06:23;12.70;;;6.57;;
21354;SDS011;10835;50.148;19.760;2023-04-07T11:08:52;19.73;;;8.93;;
21354;SDS011;10835;50.148;19.760;2023-04-07T11:11:34;19.20;;;7.82;;
21354;SDS011;10835;50.148;19.760;2023-04-07T11:14:04;16.85;;;7.63;;
21354;SDS011;10835;50.148;19.760;2023-04-07T11:16:34;17.80;;;9.25;;
21354;SDS011;10835;50.148;19.760;2023-04-07T11:19:06;12.00;;;5.60;;
21354;SDS011;10835;50.148;19.760;2023-04-07T11:21:34;12.52;;;6.43;;
21354;SDS011;10835;50.148;19.760;2023-04-07T11:24:03;12.23;;;5.10;;
21354;SDS011;10835;50.148;19.760;2023-04-07T11:26:38;10.85;;;5.63;;
21354;SDS011;10835;50.148;19.760;2023-04-07T11:29:07;7.85;;;4.32;;
21354;SDS011;10835;50.148;19.760;2023-04-07T11:31:37;21.30;;;7.03;;
21354;SDS011;10835;50.148;19.760;2023-04-07T11:34:09;14.65;;;6.63;;
21354;SDS011;10835;50.148;19.760;2023-04-07T11:36:38;10.00;;;4.97;;
21354;SDS011;10835;50.148;19.760;2023-04-07T11:39:16;16.95;;;6.90;;
21354;SDS011;10835;50.148;19.760;2023-04-07T11:41:47;8.73;;;5.05;;
21354;SDS011;10835;50.148;19.760;2023-04-07T11:44:16;11.48;;;5.40;;
21354;SDS011;10835;50.148;19.760;2023-04-07T11:46:51;13.10;;;5.03;;
21354;SDS011;10835;50.148;19.760;2023-04-07T11:49:22;12.15;;;6.85;;
21354;SDS011;10835;50.148;19.760;2023-04-07T11:51:56;9.00;;;4.65;;
21354;SDS011;10835;50.148;19.760;2023-04-07T11:54:37;12.55;;;5.72;;
21354;SDS011;10835;50.148;19.760;2023-04-07T11:57:07;11.70;;;5.10;;
21354;SDS011;10835;50.148;19.760;2023-04-07T11:59:38;10.70;;;6.35;;
21354;SDS011;10835;50.148;19.760;2023-04-07T12:02:06;9.40;;;4.43;;
21354;SDS011;10835;50.148;19.760;2023-04-07T12:04:36;9.73;;;5.20;;
21354;SDS011;10835;50.148;19.760;2023-04-07T12:07:07;10.70;;;4.07;;
21354;SDS011;10835;50.148;19.760;2023-04-07T12:09:36;8.90;;;4.57;;
21354;SDS011;10835;50.148;19.760;2023-04-07T12:12:05;10.43;;;5.00;;
21354;SDS011;10835;50.148;19.760;2023-04-07T12:14:36;7.13;;;4.50;;
21354;SDS011;10835;50.148;19.760;2023-04-07T12:17:05;8.90;;;4.85;;
21354;SDS011;10835;50.148;19.760;2023-04-07T12:19:35;11.60;;;6.22;;
21354;SDS011;10835;50.148;19.760;2023-04-07T12:22:05;10.27;;;4.75;;
21354;SDS011;10835;50.148;19.760;2023-04-07T12:24:33;12.10;;;5.68;;
21354;SDS011;10835;50.148;19.760;2023-04-07T12:27:02;10.25;;;4.90;;
21354;SDS011;10835;50.148;19.760;2023-04-07T12:29:33;8.57;;;3.95;;
21354;SDS011;10835;50.148;19.760;2023-04-07T12:32:02;9.40;;;4.78;;
21354;SDS011;10835;50.148;19.760;2023-04-07T12:34:34;10.13;;;4.80;;
21354;SDS011;10835;50.148;19.760;2023-04-07T12:37:04;11.80;;;4.85;;
21354;SDS011;10835;50.148;19.760;2023-04-07T12:39:32;9.63;;;4.63;;
21354;SDS011;10835;50.148;19.760;2023-04-07T12:42:01;7.90;;;4.75;;
21354;SDS011;10835;50.148;19.760;2023-04-07T12:44:30;12.88;;;4.30;;
21354;SDS011;10835;50.148;19.760;2023-04-07T12:46:58;9.80;;;4.45;;
21354;SDS011;10835;50.148;19.760;2023-04-07T12:49:29;7.80;;;3.65;;
21354;SDS011;10835;50.148;19.760;2023-04-07T12:51:58;11.00;;;4.97;;
21354;SDS011;10835;50.148;19.760;2023-04-07T12:54:31;6.72;;;3.83;;
21354;SDS011;10835;50.148;19.760;2023-04-07T12:56:59;7.25;;;4.32;;
21354;SDS011;10835;50.148;19.760;2023-04-07T12:59:27;9.88;;;4.72;;
21354;SDS011;10835;50.148;19.760;2023-04-07T13:01:56;10.40;;;5.15;;
21354;SDS011;10835;50.148;19.760;2023-04-07T13:04:27;11.52;;;4.93;;
21354;SDS011;10835;50.148;19.760;2023-04-07T13:06:56;8.70;;;5.15;;
21354;SDS011;10835;50.148;19.760;2023-04-07T13:09:25;8.40;;;4.65;;
21354;SDS011;10835;50.148;19.760;2023-04-07T13:11:54;10.02;;;5.55;;
21354;SDS011;10835;50.148;19.760;2023-04-07T13:14:23;11.02;;;5.05;;
21354;SDS011;10835;50.148;19.760;2023-04-07T13:16:51;11.48;;;4.57;;
21354;SDS011;10835;50.148;19.760;2023-04-07T13:19:19;11.43;;;5.45;;
21354;SDS011;10835;50.148;19.760;2023-04-07T13:21:48;12.52;;;6.32;;
21354;SDS011;10835;50.148;19.760;2023-04-07T13:24:16;12.95;;;5.82;;
21354;SDS011;10835;50.148;19.760;2023-04-07T13:26:46;13.98;;;6.13;;
21354;SDS011;10835;50.148;19.760;2023-04-07T13:29:16;11.30;;;5.20;;
21354;SDS011;10835;50.148;19.760;2023-04-07T13:31:45;11.00;;;6.03;;
21354;SDS011;10835;50.148;19.760;2023-04-07T13:34:14;8.55;;;5.05;;
21354;SDS011;10835;50.148;19.760;2023-04-07T13:36:42;11.50;;;5.85;;
21354;SDS011;10835;50.148;19.760;2023-04-07T13:39:10;12.10;;;4.78;;
21354;SDS011;10835;50.148;19.760;2023-04-07T13:41:39;9.20;;;4.95;;
21354;SDS011;10835;50.148;19.760;2023-04-07T13:44:07;10.63;;;4.13;;
21354;SDS011;10835;50.148;19.760;2023-04-07T13:46:36;9.18;;;4.82;;
21354;SDS011;10835;50.148;19.760;2023-04-07T13:49:04;10.43;;;5.25;;
21354;SDS011;10835;50.148;19.760;2023-04-07T13:51:33;7.75;;;4.85;;
21354;SDS011;10835;50.148;19.760;2023-04-07T13:54:01;12.15;;;5.18;;
21354;SDS011;10835;50.148;19.760;2023-04-07T13:56:29;14.23;;;5.80;;
21354;SDS011;10835;50.148;19.760;2023-04-07T13:58:58;9.60;;;5.00;;
21354;SDS011;10835;50.148;19.760;2023-04-07T14:01:26;16.25;;;7.50;;
21354;SDS011;10835;50.148;19.760;2023-04-07T14:03:56;14.73;;;6.40;;
21354;SDS011;10835;50.148;19.760;2023-04-07T14:06:26;14.50;;;6.43;;
21354;SDS011;10835;50.148;19.760;2023-04-07T14:08:55;8.88;;;5.32;;
21354;SDS011;10835;50.148;19.760;2023-04-07T14:11:23;11.30;;;5.45;;
21354;SDS011;10835;50.148;19.760;2023-04-07T14:13:53;9.85;;;5.65;;
21354;SDS011;10835;50.148;19.760;2023-04-07T14:16:21;10.68;;;4.88;;
21354;SDS011;10835;50.148;19.760;2023-04-07T14:18:50;8.77;;;4.65;;
21354;SDS011;10835;50.148;19.760;2023-04-07T14:21:19;7.40;;;4.53;;
21354;SDS011;10835;50.148;19.760;2023-04-07T14:23:47;11.25;;;5.40;;
21354;SDS011;10835;50.148;19.760;2023-04-07T14:26:16;12.05;;;5.75;;
21354;SDS011;10835;50.148;19.760;2023-04-07T14:28:44;9.95;;;5.10;;
21354;SDS011;10835;50.148;19.760;2023-04-07T14:31:13;12.70;;;5.22;;
21354;SDS011;10835;50.148;19.760;2023-04-07T14:33:42;10.73;;;5.47;;
21354;SDS011;10835;50.148;19.760;2023-04-07T14:36:12;9.80;;;5.60;;
21354;SDS011;10835;50.148;19.760;2023-04-07T14:38:44;13.48;;;6.50;;
21354;SDS011;10835;50.148;19.760;2023-04-07T14:41:13;12.68;;;5.65;;
21354;SDS011;10835;50.148;19.760;2023-04-07T14:43:42;20.10;;;7.15;;
21354;SDS011;10835;50.148;19.760;2023-04-07T14:46:13;16.42;;;7.15;;
21354;SDS011;10835;50.148;19.760;2023-04-07T14:48:44;16.67;;;6.85;;
21354;SDS011;10835;50.148;19.760;2023-04-07T14:51:12;18.38;;;5.93;;
21354;SDS011;10835;50.148;19.760;2023-04-07T14:53:40;14.40;;;6.63;;
21354;SDS011;10835;50.148;19.760;2023-04-07T14:56:13;15.10;;;5.53;;
21354;SDS011;10835;50.148;19.760;2023-04-07T14:58:41;12.00;;;6.03;;
21354;SDS011;10835;50.148;19.760;2023-04-07T15:01:09;10.85;;;6.03;;